createdAt,value
2022-08-03T00:00:34.599Z,4.28
2022-08-03T00:03:02.503Z,4.43
2022-08-03T00:05:30.416Z,3.75
2022-08-03T00:07:58.314Z,3.47
2022-08-03T00:10:27.980Z,3.70
2022-08-03T00:12:55.845Z,4.22
2022-08-03T00:15:23.783Z,3.25
2022-08-03T00:17:54.076Z,3.53
2022-08-03T00:20:22.524Z,4.43
2022-08-03T00:22:54.288Z,3.22
2022-08-03T00:25:22.294Z,3.13
2022-08-03T00:27:50.832Z,3.85
2022-08-03T00:30:18.834Z,3.70
2022-08-03T00:32:47.649Z,3.55
2022-08-03T00:35:36.843Z,3.78
2022-08-03T00:38:04.233Z,3.30
2022-08-03T00:40:32.632Z,3.78
2022-08-03T00:43:05.332Z,4.20
2022-08-03T00:48:02.195Z,3.47
2022-08-03T00:50:32.632Z,4.22
2022-08-03T00:53:01.613Z,3.78
2022-08-03T00:55:29.813Z,4.07
2022-08-03T00:57:59.551Z,3.80
2022-08-03T01:00:28.515Z,4.05
2022-08-03T01:02:56.513Z,4.00
2022-08-03T01:05:24.652Z,3.88
2022-08-03T01:08:27.451Z,3.63
2022-08-03T01:11:27.103Z,3.72
2022-08-03T01:14:17.889Z,4.00
2022-08-03T01:17:05.558Z,3.15
2022-08-03T01:20:02.223Z,3.55
2022-08-03T01:23:01.472Z,3.28
2022-08-03T01:26:06.490Z,2.92
2022-08-03T01:29:13.263Z,3.10
2022-08-03T01:32:58.245Z,3.10
2022-08-03T01:34:36.385Z,3.10
2022-08-03T01:37:06.524Z,3.20
2022-08-03T01:39:36.076Z,3.00
2022-08-03T01:42:08.141Z,3.50
2022-08-03T01:44:42.062Z,3.33
2022-08-03T01:47:11.249Z,3.20
2022-08-03T01:49:41.204Z,3.00
2022-08-03T01:52:09.480Z,3.20
2022-08-03T01:54:42.531Z,3.45
2022-08-03T01:57:10.751Z,3.47
2022-08-03T01:59:39.640Z,2.85
2022-08-03T02:02:29.892Z,3.33
2022-08-03T02:04:57.895Z,2.88
2022-08-03T02:07:26.975Z,3.47
2022-08-03T02:09:56.007Z,3.15
2022-08-03T02:12:25.552Z,3.13
2022-08-03T02:15:15.811Z,2.85
2022-08-03T02:17:44.767Z,3.17
2022-08-03T02:20:13.685Z,2.80
2022-08-03T02:22:43.430Z,2.80
2022-08-03T02:25:12.619Z,2.88
2022-08-03T02:27:44.642Z,3.22
2022-08-03T02:32:44.806Z,2.90
2022-08-03T02:35:14.247Z,2.55
2022-08-03T02:37:49.552Z,2.72
2022-08-03T02:40:19.665Z,2.70
2022-08-03T02:42:50.504Z,2.80
2022-08-03T02:45:19.007Z,2.97
2022-08-03T02:47:53.178Z,2.70
2022-08-03T02:50:24.227Z,2.78
2022-08-03T02:52:53.729Z,3.15
2022-08-03T02:55:23.132Z,2.67
2022-08-03T02:57:52.130Z,2.80
2022-08-03T03:00:28.020Z,3.10
2022-08-03T03:03:01.274Z,2.63
2022-08-03T03:08:25.840Z,2.90
2022-08-03T03:10:56.645Z,2.60
2022-08-03T03:13:25.165Z,2.53
2022-08-03T03:15:53.153Z,2.33
2022-08-03T03:18:23.043Z,2.65
2022-08-03T03:20:53.326Z,2.75
2022-08-03T03:23:22.664Z,4.35
2022-08-03T03:25:53.039Z,2.95
2022-08-03T03:28:21.041Z,3.08
2022-08-03T03:30:52.828Z,3.60
2022-08-03T03:33:22.529Z,2.97
2022-08-03T03:35:51.969Z,3.13
2022-08-03T03:38:20.669Z,2.92
2022-08-03T03:40:48.834Z,3.70
2022-08-03T03:43:43.058Z,3.00
2022-08-03T03:46:13.289Z,2.80
2022-08-03T03:48:41.169Z,3.08
2022-08-03T03:51:10.192Z,3.65
2022-08-03T03:53:37.977Z,3.33
2022-08-03T03:56:05.829Z,2.60
2022-08-03T03:58:33.751Z,2.67
2022-08-03T04:01:01.995Z,2.80
2022-08-03T04:03:30.286Z,3.30
2022-08-03T04:06:16.548Z,2.83
2022-08-03T04:09:19.537Z,2.53
2022-08-03T04:11:55.569Z,3.20
2022-08-03T04:14:26.696Z,3.22
2022-08-03T04:17:10.488Z,2.58
2022-08-03T04:20:01.632Z,2.78
2022-08-03T04:22:32.777Z,2.33
2022-08-03T04:25:03.955Z,2.92
2022-08-03T04:27:37.412Z,2.75
2022-08-03T04:30:06.701Z,2.90
2022-08-03T04:32:36.101Z,2.72
2022-08-03T04:35:04.343Z,2.90
2022-08-03T04:37:50.221Z,2.35
2022-08-03T04:40:51.076Z,2.55
2022-08-03T04:43:25.814Z,2.80
2022-08-03T04:45:54.554Z,2.80
2022-08-03T04:48:22.583Z,2.42
2022-08-03T04:50:50.360Z,3.13
2022-08-03T04:53:19.449Z,2.67
2022-08-03T04:55:47.577Z,3.20
2022-08-03T04:58:15.443Z,3.10
2022-08-03T05:00:43.529Z,2.42
2022-08-03T05:03:20.517Z,2.67
2022-08-03T05:06:01.479Z,2.33
2022-08-03T05:08:30.033Z,2.40
2022-08-03T05:10:59.694Z,2.72
2022-08-03T05:13:27.889Z,2.53
2022-08-03T05:15:55.842Z,2.55
2022-08-03T05:18:23.684Z,2.78
2022-08-03T05:20:51.828Z,2.80
2022-08-03T05:23:20.117Z,2.75
2022-08-03T05:25:50.120Z,2.63
2022-08-03T05:28:18.145Z,2.45
2022-08-03T05:30:48.269Z,2.45
2022-08-03T05:33:23.404Z,2.40
2022-08-03T05:36:01.034Z,2.65
2022-08-03T05:38:34.177Z,2.53
2022-08-03T05:41:21.061Z,2.42
2022-08-03T05:43:54.011Z,2.80
2022-08-03T05:46:25.500Z,2.88
2022-08-03T05:48:54.797Z,2.50
2022-08-03T05:51:22.873Z,3.17
2022-08-03T05:53:50.867Z,2.33
2022-08-03T05:56:23.673Z,2.60
2022-08-03T05:58:52.591Z,2.42
2022-08-03T06:01:24.588Z,2.90
2022-08-03T06:03:53.884Z,2.67
2022-08-03T06:06:21.866Z,2.90
2022-08-03T06:08:49.889Z,2.30
2022-08-03T06:11:26.962Z,2.60
2022-08-03T06:13:57.195Z,2.47
2022-08-03T06:16:25.411Z,2.00
2022-08-03T06:18:53.984Z,2.40
2022-08-03T06:21:21.968Z,2.10
2022-08-03T06:23:53.074Z,2.30
2022-08-03T06:28:54.996Z,2.55
2022-08-03T06:31:32.767Z,2.40
2022-08-03T06:34:32.803Z,3.85
2022-08-03T06:36:52.959Z,2.97
2022-08-03T06:39:23.551Z,2.92
2022-08-03T06:41:53.148Z,3.17
2022-08-03T06:44:21.126Z,2.95
2022-08-03T06:46:51.921Z,3.28
2022-08-03T06:49:19.846Z,2.80
2022-08-03T06:52:05.487Z,3.47
2022-08-03T06:54:38.447Z,3.65
2022-08-03T06:57:07.736Z,3.00
2022-08-03T07:00:09.904Z,3.10
2022-08-03T07:02:23.585Z,2.70
2022-08-03T07:04:52.296Z,2.65
2022-08-03T07:07:22.515Z,3.00
2022-08-03T07:09:57.088Z,2.40
2022-08-03T07:12:29.777Z,2.90
2022-08-03T07:15:01.291Z,2.53
2022-08-03T07:17:34.822Z,2.60
2022-08-03T07:20:08.301Z,2.28
2022-08-03T07:22:36.275Z,2.30
2022-08-03T07:25:05.132Z,2.63
2022-08-03T07:27:33.919Z,2.42
2022-08-03T07:30:02.103Z,2.30
2022-08-03T07:32:32.008Z,1.95
2022-08-03T07:35:01.546Z,2.20
2022-08-03T07:37:31.717Z,1.92
2022-08-03T07:40:06.065Z,1.73
2022-08-03T07:42:33.962Z,2.17
2022-08-03T07:45:01.851Z,1.90
2022-08-03T07:47:34.964Z,3.20
2022-08-03T07:50:05.752Z,1.98
2022-08-03T07:52:53.205Z,2.10
2022-08-03T07:55:39.751Z,1.80
2022-08-03T07:58:10.095Z,1.75
2022-08-03T08:00:38.660Z,1.70
2022-08-03T08:03:08.854Z,1.55
2022-08-03T08:05:37.166Z,2.05
2022-08-03T08:08:08.597Z,1.60
2022-08-03T08:10:36.928Z,1.85
2022-08-03T08:13:05.316Z,1.90
2022-08-03T08:15:33.863Z,1.75
2022-08-03T08:18:05.037Z,1.80
2022-08-03T08:20:37.976Z,1.70
2022-08-03T08:23:24.849Z,1.83
2022-08-03T08:25:57.089Z,1.83
2022-08-03T08:28:32.282Z,1.90
2022-08-03T08:31:02.258Z,1.70
2022-08-03T08:33:42.496Z,1.95
2022-08-03T08:36:18.514Z,1.73
2022-08-03T08:38:46.481Z,2.00
2022-08-03T08:41:15.402Z,2.03
2022-08-03T08:43:49.303Z,2.17
2022-08-03T08:46:23.993Z,1.95
2022-08-03T08:48:55.806Z,1.70
2022-08-03T08:51:52.749Z,1.80
2022-08-03T08:54:21.849Z,1.83
2022-08-03T08:56:50.972Z,1.80
2022-08-03T08:59:21.453Z,2.50
2022-08-03T09:01:49.470Z,2.17
2022-08-03T09:04:20.084Z,1.80
2022-08-03T09:07:10.604Z,1.95
2022-08-03T09:10:11.457Z,1.75
2022-08-03T09:12:42.374Z,1.80
2022-08-03T09:15:39.323Z,1.98
2022-08-03T09:18:07.192Z,2.08
2022-08-03T09:20:36.892Z,2.10
2022-08-03T09:25:59.980Z,2.00
2022-08-03T09:28:58.051Z,1.73
2022-08-03T09:31:36.437Z,1.80
2022-08-03T09:34:06.579Z,2.03
2022-08-03T09:36:54.175Z,1.75
2022-08-03T09:39:40.640Z,1.90
2022-08-03T09:42:11.115Z,1.77
2022-08-03T09:44:47.775Z,2.13
2022-08-03T09:47:18.064Z,1.73
2022-08-03T09:50:09.310Z,1.73
2022-08-03T09:52:49.938Z,1.52
2022-08-03T09:56:34.125Z,2.00
2022-08-03T09:58:11.501Z,1.70
2022-08-03T10:00:58.981Z,2.00
2022-08-03T10:04:03.276Z,1.70
2022-08-03T10:06:29.055Z,1.70
2022-08-03T10:09:16.274Z,1.73
2022-08-03T10:11:44.957Z,1.90
2022-08-03T10:14:19.304Z,1.65
2022-08-03T10:16:48.977Z,1.60
2022-08-03T10:19:17.507Z,1.90
2022-08-03T10:21:51.513Z,1.90
2022-08-03T10:24:26.207Z,1.98
2022-08-03T10:27:16.327Z,1.95
2022-08-03T10:29:47.623Z,1.88
2022-08-03T10:32:38.843Z,2.10
2022-08-03T10:35:21.075Z,2.10
2022-08-03T10:38:00.881Z,2.10
2022-08-03T10:40:49.414Z,2.03
2022-08-03T10:43:23.251Z,1.90
2022-08-03T10:45:51.085Z,2.05
2022-08-03T10:48:20.006Z,2.40
2022-08-03T10:50:53.206Z,1.98
2022-08-03T10:56:51.987Z,1.80
2022-08-03T10:59:46.841Z,1.65
2022-08-03T11:03:10.196Z,1.58
2022-08-03T11:05:54.563Z,1.60
2022-08-03T11:08:47.579Z,1.90
2022-08-03T11:11:24.254Z,1.90
2022-08-03T11:14:07.809Z,1.80
2022-08-03T11:16:58.616Z,1.83
2022-08-03T11:19:57.814Z,2.25
2022-08-03T11:22:28.347Z,1.70
2022-08-03T11:24:57.467Z,2.05
2022-08-03T11:27:30.395Z,2.00
2022-08-03T11:30:17.660Z,1.70
2022-08-03T11:32:46.619Z,1.90
2022-08-03T11:35:26.499Z,1.70
2022-08-03T11:38:03.436Z,1.70
2022-08-03T11:40:36.117Z,1.70
2022-08-03T11:43:06.540Z,1.92
2022-08-03T11:45:35.389Z,1.60
2022-08-03T11:48:23.507Z,1.85
2022-08-03T11:50:53.487Z,1.73
2022-08-03T11:53:21.416Z,1.80
2022-08-03T11:55:49.313Z,1.70
2022-08-03T11:59:19.417Z,1.60
2022-08-03T12:01:12.392Z,1.42
2022-08-03T12:03:40.475Z,1.80
2022-08-03T12:06:13.621Z,1.40
2022-08-03T12:08:42.533Z,1.60
2022-08-03T12:11:12.612Z,1.50
2022-08-03T12:14:45.435Z,1.60
2022-08-03T12:16:35.681Z,1.70
2022-08-03T12:19:06.802Z,1.50
2022-08-03T12:21:34.905Z,1.70
2022-08-03T12:24:04.637Z,1.52
2022-08-03T12:26:59.187Z,1.40
2022-08-03T12:29:28.035Z,1.70
2022-08-03T12:31:56.454Z,1.50
2022-08-03T12:34:24.361Z,1.30
2022-08-03T12:36:55.988Z,1.40
2022-08-03T12:39:25.727Z,1.38
2022-08-03T12:41:55.241Z,1.55
2022-08-03T12:44:34.920Z,1.80
2022-08-03T12:47:04.462Z,1.35
2022-08-03T12:49:58.435Z,1.75
2022-08-03T12:52:27.377Z,1.60
2022-08-03T12:55:01.129Z,1.50
2022-08-03T12:57:42.183Z,1.60
2022-08-03T13:00:21.591Z,1.60
2022-08-03T13:03:39.301Z,1.70
2022-08-03T13:05:51.998Z,1.90
2022-08-03T13:08:21.040Z,1.60
2022-08-03T13:10:49.178Z,1.48
2022-08-03T13:13:17.063Z,1.73
2022-08-03T13:15:47.958Z,2.05
2022-08-03T13:18:17.219Z,1.60
2022-08-03T13:20:45.703Z,2.10
2022-08-03T13:23:15.449Z,2.33
2022-08-03T13:25:56.327Z,2.13
2022-08-03T13:28:25.122Z,2.97
2022-08-03T13:30:54.857Z,2.00
2022-08-03T13:33:22.652Z,2.15
2022-08-03T13:35:50.707Z,2.20
2022-08-03T13:38:18.805Z,2.20
2022-08-03T13:40:49.501Z,2.20
2022-08-03T13:43:17.890Z,2.60
2022-08-03T13:45:51.238Z,2.88
2022-08-03T13:48:36.210Z,2.50
2022-08-03T13:51:11.817Z,2.05
2022-08-03T13:53:52.365Z,2.20
2022-08-03T13:56:21.305Z,1.90
2022-08-03T13:58:49.183Z,2.10
2022-08-03T14:01:18.573Z,2.10
2022-08-03T14:03:54.283Z,1.92
2022-08-03T14:06:26.175Z,2.00
2022-08-03T14:08:57.842Z,2.10
2022-08-03T14:12:06.832Z,1.90
2022-08-03T14:14:22.116Z,1.80
2022-08-03T14:16:49.893Z,2.25
2022-08-03T14:19:18.129Z,1.73
2022-08-03T14:22:06.029Z,1.90
2022-08-03T14:24:34.760Z,1.75
2022-08-03T14:27:09.042Z,1.70
2022-08-03T14:29:37.185Z,1.77
2022-08-03T14:32:11.363Z,1.50
2022-08-03T14:34:43.322Z,1.63
2022-08-03T14:37:11.104Z,1.67
2022-08-03T14:42:27.686Z,1.50
2022-08-03T14:45:00.707Z,1.50
2022-08-03T14:49:00.860Z,1.60
2022-08-03T14:50:38.460Z,1.60
2022-08-03T14:53:08.714Z,1.65
2022-08-03T14:55:38.933Z,1.60
2022-08-03T14:58:28.630Z,1.60
2022-08-03T15:01:04.282Z,1.75
2022-08-03T15:03:54.621Z,1.48
2022-08-03T15:06:31.338Z,1.60
2022-08-03T15:11:50.098Z,1.80
2022-08-03T15:14:19.128Z,1.88
2022-08-03T15:16:57.606Z,2.08
2022-08-03T15:20:00.341Z,2.50
2022-08-03T15:23:29.467Z,2.40
2022-08-03T15:26:28.726Z,2.25
2022-08-03T15:28:45.957Z,2.20
2022-08-03T15:31:18.927Z,2.20
2022-08-03T15:33:47.042Z,2.35
2022-08-03T15:36:20.704Z,2.03
2022-08-03T15:38:48.717Z,2.33
2022-08-03T15:41:16.623Z,2.40
2022-08-03T15:43:47.634Z,2.83
2022-08-03T15:46:31.273Z,2.50
2022-08-03T15:48:59.188Z,2.13
2022-08-03T15:51:30.029Z,2.53
2022-08-03T15:54:00.915Z,2.50
2022-08-03T15:56:28.775Z,2.30
2022-08-03T15:59:11.958Z,2.15
2022-08-03T16:01:44.531Z,2.72
2022-08-03T16:04:12.393Z,2.17
2022-08-03T16:06:40.388Z,2.60
2022-08-03T16:09:24.069Z,2.58
2022-08-03T16:12:00.108Z,2.53
2022-08-03T16:17:09.867Z,2.33
2022-08-03T16:19:39.528Z,2.42
2022-08-03T16:22:10.671Z,2.58
2022-08-03T16:24:47.092Z,2.58
2022-08-03T16:27:37.220Z,2.58
2022-08-03T16:30:05.537Z,2.35
2022-08-03T16:32:33.428Z,2.67
2022-08-03T16:35:01.759Z,3.10
2022-08-03T16:37:38.597Z,2.90
2022-08-03T16:40:17.459Z,3.03
2022-08-03T16:42:48.367Z,3.10
2022-08-03T16:45:16.237Z,2.63
2022-08-03T16:47:44.291Z,3.17
2022-08-03T16:50:19.080Z,3.90
2022-08-03T16:52:48.524Z,3.20
2022-08-03T16:55:48.611Z,3.60
2022-08-03T16:58:08.927Z,3.20
2022-08-03T17:00:41.287Z,2.97
2022-08-03T17:03:20.510Z,3.20
2022-08-03T17:05:52.910Z,2.95
2022-08-03T17:08:27.286Z,3.20
2022-08-03T17:10:57.927Z,3.63
2022-08-03T17:13:39.320Z,3.55
2022-08-03T17:16:10.125Z,3.30
2022-08-03T17:19:01.884Z,3.70
2022-08-03T17:21:39.457Z,3.50
2022-08-03T17:24:30.403Z,4.13
2022-08-03T17:27:01.589Z,3.65
2022-08-03T17:29:35.109Z,4.40
2022-08-03T17:32:09.230Z,4.03
2022-08-03T17:34:38.786Z,4.07
2022-08-03T17:37:07.453Z,4.10
2022-08-03T17:39:59.097Z,3.65
2022-08-03T17:42:30.829Z,4.07
2022-08-03T17:45:03.627Z,4.32
2022-08-03T17:47:42.422Z,3.95
2022-08-03T17:53:26.308Z,4.63
2022-08-03T17:56:40.860Z,4.20
2022-08-03T17:59:50.811Z,3.97
2022-08-03T18:02:52.653Z,4.15
2022-08-03T18:05:22.157Z,4.70
2022-08-03T18:08:01.610Z,4.82
2022-08-03T18:10:37.446Z,4.75
2022-08-03T18:13:23.808Z,5.07
2022-08-03T18:16:03.276Z,5.38
2022-08-03T18:18:35.248Z,4.70
2022-08-03T18:21:09.228Z,4.80
2022-08-03T18:23:45.601Z,4.63
2022-08-03T18:26:18.644Z,5.47
2022-08-03T18:28:48.872Z,5.50
2022-08-03T18:31:59.422Z,5.22
2022-08-03T18:34:17.078Z,5.18
2022-08-03T18:37:00.874Z,5.15
2022-08-03T18:39:50.347Z,5.78
2022-08-03T18:42:25.588Z,5.53
2022-08-03T18:44:59.151Z,5.13
2022-08-03T18:48:02.473Z,4.90
2022-08-03T18:50:46.509Z,5.07
2022-08-03T18:54:02.910Z,4.70
2022-08-03T18:56:42.778Z,4.97
2022-08-03T18:59:16.128Z,3.97
2022-08-03T19:02:06.428Z,4.40
2022-08-03T19:04:48.501Z,3.60
2022-08-03T19:07:27.492Z,4.30
2022-08-03T19:10:20.804Z,4.88
2022-08-03T19:12:56.414Z,4.10
2022-08-03T19:15:36.339Z,4.13
2022-08-03T19:18:10.788Z,3.95
2022-08-03T19:20:39.274Z,4.05
2022-08-03T19:23:11.964Z,3.85
2022-08-03T19:25:45.949Z,4.25
2022-08-03T19:28:14.840Z,3.85
2022-08-03T19:30:55.499Z,3.00
2022-08-03T19:33:31.178Z,3.70
2022-08-03T19:36:26.467Z,3.55
2022-08-03T19:38:58.410Z,3.55
2022-08-03T19:41:41.702Z,3.05
2022-08-03T19:47:16.997Z,3.45
2022-08-03T19:50:01.313Z,3.17
2022-08-03T19:52:37.319Z,3.08
2022-08-03T19:55:12.755Z,2.95
2022-08-03T19:57:43.260Z,2.67
2022-08-03T20:00:26.400Z,3.10
2022-08-03T20:02:56.281Z,3.00
2022-08-03T20:05:24.209Z,3.03
2022-08-03T20:07:59.571Z,2.60
2022-08-03T20:10:29.153Z,3.20
2022-08-03T20:12:57.776Z,3.20
2022-08-03T20:15:31.854Z,2.88
2022-08-03T20:18:03.713Z,3.85
2022-08-03T20:20:37.132Z,3.00
2022-08-03T20:23:07.556Z,3.33
2022-08-03T20:25:57.474Z,3.85
2022-08-03T20:28:53.507Z,3.95
2022-08-03T20:31:30.572Z,4.10
2022-08-03T20:34:01.018Z,3.75
2022-08-03T20:36:29.495Z,3.53
2022-08-03T20:38:58.866Z,3.47
2022-08-03T20:41:27.538Z,3.90
2022-08-03T20:43:55.527Z,3.92
2022-08-03T20:49:12.238Z,4.15
2022-08-03T20:51:50.140Z,3.40
2022-08-03T20:54:31.122Z,3.83
2022-08-03T20:57:04.434Z,4.00
2022-08-03T20:59:50.662Z,3.67
2022-08-03T21:02:30.199Z,3.47
2022-08-03T21:05:03.024Z,3.78
2022-08-03T21:08:06.180Z,3.83
2022-08-03T21:10:41.961Z,4.03
2022-08-03T21:13:07.420Z,3.72
2022-08-03T21:13:10.391Z,3.17
2022-08-03T21:13:42.461Z,3.55
2022-08-03T21:16:15.004Z,3.38
2022-08-03T21:18:50.195Z,3.67
2022-08-03T21:21:22.661Z,3.58
2022-08-03T21:23:53.365Z,4.10
2022-08-03T21:26:24.533Z,4.00
2022-08-03T21:28:55.529Z,4.07
2022-08-03T21:31:25.870Z,4.25
2022-08-03T21:34:00.954Z,4.03
2022-08-03T21:36:33.272Z,4.68
2022-08-03T21:39:02.084Z,4.60
2022-08-03T21:41:31.819Z,4.35
2022-08-03T21:44:00.773Z,4.07
2022-08-03T21:46:37.041Z,3.58
2022-08-03T21:49:51.841Z,3.63
2022-08-03T21:51:59.452Z,3.70
2022-08-03T21:54:36.174Z,4.03
2022-08-03T21:57:06.063Z,5.10
2022-08-03T21:59:38.177Z,5.15
2022-08-03T22:02:06.918Z,4.72
2022-08-03T22:04:57.006Z,4.45
2022-08-03T22:07:27.170Z,4.47
2022-08-03T22:09:56.667Z,4.70
2022-08-03T22:12:26.322Z,4.70
2022-08-03T22:14:59.995Z,4.97
2022-08-03T22:17:55.037Z,4.78
2022-08-03T22:20:22.118Z,4.93
2022-08-03T22:22:56.709Z,5.22
2022-08-03T22:25:30.810Z,4.78
2022-08-03T22:28:05.683Z,5.20
2022-08-03T22:30:34.333Z,5.25
2022-08-03T22:33:04.463Z,4.43
2022-08-03T22:35:47.540Z,5.47
2022-08-03T22:38:26.133Z,4.30
2022-08-03T22:40:55.419Z,4.85
2022-08-03T22:43:26.941Z,3.97
2022-08-03T22:46:10.600Z,4.60
2022-08-03T22:48:41.845Z,4.07
2022-08-03T22:51:10.736Z,4.38
2022-08-03T22:53:40.902Z,4.65
2022-08-03T22:56:09.081Z,3.78
2022-08-03T22:58:37.158Z,3.78
2022-08-03T23:01:08.532Z,3.80
2022-08-03T23:03:59.180Z,3.92
2022-08-03T23:06:35.294Z,4.60
2022-08-03T23:09:07.982Z,4.32
2022-08-03T23:14:11.618Z,4.72
2022-08-03T23:16:40.524Z,5.05
2022-08-03T23:19:17.185Z,3.97
2022-08-03T23:22:03.152Z,4.30
2022-08-03T23:24:36.517Z,4.03
2022-08-03T23:27:06.273Z,4.43
2022-08-03T23:29:36.635Z,4.25
2022-08-03T23:32:06.632Z,4.65
2022-08-03T23:34:55.428Z,4.55
2022-08-03T23:37:25.304Z,5.05
2022-08-03T23:39:54.265Z,4.20
2022-08-03T23:42:22.113Z,4.65
2022-08-03T23:44:54.599Z,4.45
2022-08-03T23:47:23.520Z,4.65
2022-08-03T23:49:51.659Z,4.55
2022-08-03T23:52:43.938Z,5.20
2022-08-03T23:55:18.494Z,5.15
2022-08-03T23:58:05.330Z,6.80
